Time;durP1;ratioP1;P1;durP2;ratioP2;P2;SDS_P1;SDS_P2;PMS_P1;PMS_P2;Temp;Humidity;BMP_temperature;BMP_pressure;BME280_temperature;BME280_humidity;BME280_pressure;Samples;Min_cycle;Max_cycle;Signal;HPM_P1;HPM_P2
2023/06/14 00:00:52;;;;;;;5.35;4.70;;;21.70;31.90;;;;;;5044533;28;20159;-77
2023/06/14 00:03:21;;;;;;;4.63;4.18;;;21.70;31.90;;;;;;5043884;28;20155;-77
2023/06/14 00:05:49;;;;;;;4.50;4.10;;;21.70;32.10;;;;;;5060434;28;20170;-77
2023/06/14 00:08:18;;;;;;;5.18;4.68;;;21.70;32.10;;;;;;5043994;28;20212;-77
2023/06/14 00:10:47;;;;;;;5.00;4.50;;;21.70;32.20;;;;;;5044940;28;20159;-78
2023/06/14 00:13:15;;;;;;;4.82;4.32;;;21.70;32.20;;;;;;5043776;28;20181;-78
2023/06/14 00:15:42;;;;;;;5.15;4.65;;;21.70;32.10;;;;;;5044292;28;20154;-77
2023/06/14 00:18:11;;;;;;;4.88;4.47;;;21.70;32.10;;;;;;5042912;28;20169;-78
2023/06/14 00:20:39;;;;;;;5.18;4.68;;;21.70;32.10;;;;;;5058421;28;20189;-78
2023/06/14 00:23:06;;;;;;;5.07;4.57;;;21.70;32.20;;;;;;5044523;28;20166;-78
2023/06/14 00:25:35;;;;;;;5.72;4.95;;;21.70;32.20;;;;;;5043376;28;20229;-77
2023/06/14 00:28:03;;;;;;;6.82;4.97;;;21.70;32.30;;;;;;5043431;28;20162;-79
2023/06/14 00:30:30;;;;;;;5.20;4.70;;;21.60;32.10;;;;;;5042663;28;20610;-77
2023/06/14 00:32:56;;;;;;;5.60;4.78;;;21.70;32.20;;;;;;5025772;28;20174;-78
2023/06/14 00:35:23;;;;;;;5.25;4.70;;;21.70;32.30;;;;;;5041553;28;20167;-78
2023/06/14 00:37:54;;;;;;;5.10;4.60;;;21.70;32.30;;;;;;5042130;28;20169;-79
2023/06/14 00:40:21;;;;;;;5.45;4.95;;;21.60;32.20;;;;;;5043767;28;20197;-78
2023/06/14 00:42:47;;;;;;;4.95;4.47;;;21.60;32.40;;;;;;5042815;28;20158;-78
2023/06/14 00:45:13;;;;;;;5.25;4.75;;;21.60;32.30;;;;;;5041637;28;20230;-77
2023/06/14 00:47:40;;;;;;;5.20;4.70;;;21.60;32.40;;;;;;5044181;28;20229;-79
2023/06/14 00:50:07;;;;;;;5.20;4.65;;;21.60;32.30;;;;;;5043089;28;20329;-77
2023/06/14 00:52:37;;;;;;;5.00;4.47;;;21.60;32.60;;;;;;5042500;28;20163;-78
2023/06/14 00:55:06;;;;;;;4.93;4.45;;;21.50;32.40;;;;;;5043927;28;20174;-77
2023/06/14 00:57:32;;;;;;;5.57;4.78;;;21.60;32.50;;;;;;5044212;28;20159;-78
2023/06/14 01:00:08;;;;;;;5.07;4.57;;;21.60;32.50;;;;;;5043395;28;20180;-77
2023/06/14 01:02:36;;;;;;;5.40;4.90;;;21.60;32.30;;;;;;5043676;28;20187;-79
2023/06/14 01:05:03;;;;;;;5.20;4.70;;;21.60;32.50;;;;;;5043684;28;20159;-78
2023/06/14 01:08:02;;;;;;;5.05;4.55;;;21.50;32.60;;;;;;5042592;28;20147;-80
2023/06/14 01:10:51;;;;;;;5.60;4.90;;;21.50;32.60;;;;;;5042489;28;20713;-77
2023/06/14 01:13:34;;;;;;;5.25;4.75;;;21.50;32.50;;;;;;5043267;28;20567;-78
2023/06/14 01:16:02;;;;;;;4.50;4.10;;;21.50;32.60;;;;;;5042289;28;20209;-77
2023/06/14 01:18:29;;;;;;;5.32;4.70;;;21.50;32.60;;;;;;5058506;28;20203;-81
2023/06/14 01:20:56;;;;;;;5.95;4.75;;;21.50;32.70;;;;;;5042257;28;20490;-77
2023/06/14 01:23:22;;;;;;;4.95;4.45;;;21.50;32.70;;;;;;5042396;28;20245;-82
2023/06/14 01:25:52;;;;;;;5.07;4.57;;;21.50;32.70;;;;;;5025575;28;20163;-78
2023/06/14 01:28:19;;;;;;;4.93;4.40;;;21.50;32.70;;;;;;5025261;28;20208;-80
2023/06/14 01:30:48;;;;;;;5.00;4.50;;;21.50;32.80;;;;;;5044408;28;20157;-80
2023/06/14 01:33:17;;;;;;;5.05;4.55;;;21.40;32.70;;;;;;5062092;28;20159;-78
2023/06/14 01:35:45;;;;;;;5.28;4.78;;;21.50;32.70;;;;;;5045506;28;20154;-78
2023/06/14 01:38:10;;;;;;;5.03;4.53;;;21.50;32.80;;;;;;5045582;28;20162;-78
2023/06/14 01:40:37;;;;;;;5.28;4.78;;;21.50;32.90;;;;;;5047055;28;20543;-77
2023/06/14 01:43:05;;;;;;;4.65;4.20;;;21.50;32.80;;;;;;5047138;28;20158;-78
2023/06/14 01:45:30;;;;;;;5.20;4.72;;;21.50;32.80;;;;;;5045647;28;20162;-79
2023/06/14 01:47:56;;;;;;;5.03;4.50;;;21.50;32.80;;;;;;5045831;28;20218;-77
2023/06/14 01:50:22;;;;;;;5.03;4.53;;;21.50;33.00;;;;;;5046555;28;20191;-78
2023/06/14 01:52:50;;;;;;;5.22;4.72;;;21.50;33.00;;;;;;5045152;28;20198;-80
2023/06/14 01:55:17;;;;;;;7.20;4.60;;;21.40;33.00;;;;;;5045596;28;20171;-78
2023/06/14 01:57:45;;;;;;;5.03;4.53;;;21.50;33.00;;;;;;5045072;28;20147;-78
2023/06/14 02:00:12;;;;;;;5.45;4.88;;;21.40;32.90;;;;;;5044421;28;20656;-78
2023/06/14 02:02:42;;;;;;;5.13;4.60;;;21.40;32.90;;;;;;5046565;28;20593;-79
2023/06/14 02:05:08;;;;;;;4.53;4.13;;;21.50;32.80;;;;;;5045395;28;20163;-78
2023/06/14 02:07:34;;;;;;;5.20;4.70;;;21.40;33.00;;;;;;5044794;28;20178;-78
2023/06/14 02:10:00;;;;;;;4.90;4.40;;;21.40;33.00;;;;;;5046168;28;20192;-77
2023/06/14 02:12:25;;;;;;;5.20;4.28;;;21.40;33.00;;;;;;5061093;28;20167;-79
2023/06/14 02:14:51;;;;;;;5.00;4.50;;;21.40;33.10;;;;;;5045945;28;20159;-78
2023/06/14 02:17:17;;;;;;;5.40;4.57;;;21.40;33.10;;;;;;5046432;28;20611;-79
2023/06/14 02:19:42;;;;;;;5.15;4.65;;;21.30;33.00;;;;;;5044757;28;20166;-77
2023/06/14 02:22:08;;;;;;;5.15;4.65;;;21.40;33.20;;;;;;5044576;28;20167;-80
2023/06/14 02:24:35;;;;;;;5.18;4.63;;;21.40;33.20;;;;;;5045374;28;20174;-77
2023/06/14 02:27:03;;;;;;;4.72;4.32;;;21.40;33.10;;;;;;5045330;28;20146;-78
2023/06/14 02:29:29;;;;;;;4.80;4.35;;;21.40;33.10;;;;;;5045396;28;20734;-79
2023/06/14 02:31:54;;;;;;;5.35;4.57;;;21.40;33.10;;;;;;5027522;28;20167;-78
2023/06/14 02:34:21;;;;;;;5.30;4.78;;;21.40;33.20;;;;;;5028752;28;20167;-77
2023/06/14 02:36:47;;;;;;;5.10;4.60;;;21.40;33.20;;;;;;5043554;28;20170;-79
2023/06/14 02:39:13;;;;;;;4.75;4.25;;;21.40;33.30;;;;;;5044476;28;20170;-78
2023/06/14 02:41:39;;;;;;;4.72;4.32;;;21.30;33.30;;;;;;5043010;28;20159;-79
2023/06/14 02:44:11;;;;;;;5.65;5.05;;;21.30;33.40;;;;;;5043799;28;20182;-77
2023/06/14 02:46:37;;;;;;;4.78;4.38;;;21.40;33.40;;;;;;5045459;28;20214;-78
2023/06/14 02:49:02;;;;;;;5.28;4.55;;;21.30;33.30;;;;;;5045818;28;20281;-79
2023/06/14 02:51:29;;;;;;;5.05;4.55;;;21.40;33.30;;;;;;5060485;28;20163;-78
2023/06/14 02:53:55;;;;;;;5.18;4.68;;;21.40;33.30;;;;;;5043948;28;20155;-78
2023/06/14 02:56:22;;;;;;;5.00;4.50;;;21.30;33.50;;;;;;5043390;28;20659;-78
2023/06/14 02:58:49;;;;;;;5.13;4.63;;;21.30;33.50;;;;;;5043502;28;20190;-78
2023/06/14 03:01:16;;;;;;;5.65;4.63;;;21.30;33.60;;;;;;5060403;28;20167;-80
2023/06/14 03:03:42;;;;;;;5.18;4.60;;;21.30;33.40;;;;;;5026722;28;20167;-79
2023/06/14 03:06:12;;;;;;;5.10;4.60;;;21.30;33.50;;;;;;5043471;28;20157;-77
2023/06/14 03:08:38;;;;;;;4.80;4.32;;;21.30;33.50;;;;;;5043448;28;20206;-78
2023/06/14 03:11:05;;;;;;;5.15;4.65;;;21.30;33.50;;;;;;5042670;28;20177;-77
2023/06/14 03:13:32;;;;;;;5.22;4.72;;;21.30;33.40;;;;;;5042493;28;20197;-78
2023/06/14 03:16:00;;;;;;;5.13;4.63;;;21.30;33.50;;;;;;5043431;28;20151;-79
2023/06/14 03:18:26;;;;;;;5.70;4.75;;;21.30;33.60;;;;;;5042846;28;20158;-78
2023/06/14 03:20:56;;;;;;;4.95;4.47;;;21.30;33.60;;;;;;5025739;28;20598;-77
2023/06/14 03:23:25;;;;;;;5.10;4.60;;;21.30;33.40;;;;;;5042142;28;20155;-78
2023/06/14 03:25:52;;;;;;;4.72;4.15;;;21.30;33.70;;;;;;5043692;28;20150;-80
2023/06/14 03:28:18;;;;;;;5.60;4.55;;;21.30;33.70;;;;;;5042629;28;20154;-78
2023/06/14 03:30:44;;;;;;;4.93;4.40;;;21.30;33.70;;;;;;5042274;28;20163;-79
2023/06/14 03:33:11;;;;;;;5.93;4.53;;;21.30;33.70;;;;;;5042632;28;20187;-78
2023/06/14 03:35:46;;;;;;;5.07;4.57;;;21.30;33.70;;;;;;5042743;28;20166;-78
2023/06/14 03:38:12;;;;;;;5.05;4.35;;;21.30;33.70;;;;;;5026232;28;20162;-79
2023/06/14 03:40:38;;;;;;;4.97;4.47;;;21.30;33.80;;;;;;5042903;28;20182;-80
2023/06/14 03:43:05;;;;;;;5.05;4.55;;;21.30;33.70;;;;;;5042581;28;20147;-78
2023/06/14 03:45:31;;;;;;;5.13;4.63;;;21.20;33.50;;;;;;5043593;28;20159;-79
2023/06/14 03:47:58;;;;;;;5.20;4.53;;;21.20;33.80;;;;;;5041793;28;20219;-78
2023/06/14 03:50:23;;;;;;;5.45;4.88;;;21.20;33.90;;;;;;5040876;28;20188;-80
2023/06/14 03:52:51;;;;;;;5.30;4.80;;;21.20;33.80;;;;;;5056813;28;20253;-81
2023/06/14 03:55:17;;;;;;;5.03;4.53;;;21.20;33.90;;;;;;5039827;28;20173;-79
2023/06/14 03:57:42;;;;;;;4.82;4.25;;;21.20;33.80;;;;;;5039779;28;20159;-78
2023/06/14 04:00:11;;;;;;;4.90;4.40;;;21.20;33.80;;;;;;5056590;28;20171;-80
2023/06/14 04:02:37;;;;;;;5.18;4.65;;;21.20;34.00;;;;;;5039496;28;20162;-78
2023/06/14 04:05:08;;;;;;;5.20;4.70;;;21.20;34.00;;;;;;5038336;28;20151;-82
2023/06/14 04:07:44;;;;;;;4.90;4.40;;;21.20;34.20;;;;;;5037762;28;20159;-80
2023/06/14 04:10:13;;;;;;;4.70;4.30;;;21.20;34.10;;;;;;5022745;28;20194;-80
2023/06/14 04:12:39;;;;;;;5.00;4.50;;;21.20;34.00;;;;;;5039743;28;20155;-82
2023/06/14 04:15:06;;;;;;;4.90;4.38;;;21.20;33.90;;;;;;5039324;28;20162;-79
2023/06/14 04:17:33;;;;;;;4.82;4.35;;;21.20;34.00;;;;;;5038223;28;20257;-81
2023/06/14 04:20:01;;;;;;;5.00;4.50;;;21.30;34.10;;;;;;5038596;28;20230;-82
2023/06/14 04:22:28;;;;;;;5.13;4.50;;;21.20;33.90;;;;;;5038432;28;20249;-78
2023/06/14 04:24:59;;;;;;;5.40;4.70;;;21.30;34.10;;;;;;5037912;28;20177;-80
2023/06/14 04:27:26;;;;;;;4.50;4.10;;;21.20;34.00;;;;;;5055076;28;20174;-82
2023/06/14 04:29:56;;;;;;;5.18;4.68;;;21.30;34.10;;;;;;5038345;28;20217;-81
2023/06/14 04:32:25;;;;;;;5.20;4.60;;;21.20;33.90;;;;;;5038685;28;20151;-79
2023/06/14 04:34:54;;;;;;;5.18;4.30;;;21.20;34.10;;;;;;5038535;28;20147;-80
2023/06/14 04:37:21;;;;;;;4.90;4.40;;;21.20;34.20;;;;;;5054403;28;20162;-79
2023/06/14 04:39:48;;;;;;;5.07;4.50;;;21.20;34.10;;;;;;5037928;28;20177;-78
2023/06/14 04:42:16;;;;;;;5.03;4.60;;;21.20;34.20;;;;;;5037777;28;20163;-78
2023/06/14 04:44:43;;;;;;;4.95;4.45;;;21.20;34.20;;;;;;5021205;28;20596;-81
2023/06/14 04:47:09;;;;;;;5.00;4.50;;;21.20;34.20;;;;;;5037683;28;20249;-78
2023/06/14 04:49:37;;;;;;;5.00;4.50;;;21.20;34.20;;;;;;5021715;28;20190;-80
2023/06/14 04:52:03;;;;;;;4.97;4.47;;;21.30;34.20;;;;;;5055112;28;20174;-81
2023/06/14 04:54:31;;;;;;;5.03;4.53;;;21.30;34.20;;;;;;5039798;28;20155;-82
2023/06/14 04:56:57;;;;;;;4.55;4.15;;;21.20;34.30;;;;;;5046665;28;20155;-80
2023/06/14 04:59:23;;;;;;;5.10;4.53;;;21.20;34.30;;;;;;5064828;28;20189;-78
2023/06/14 05:01:49;;;;;;;5.00;4.50;;;21.20;34.20;;;;;;5063338;28;20170;-78
2023/06/14 05:04:16;;;;;;;5.20;4.50;;;21.20;34.40;;;;;;5043925;28;20171;-77
2023/06/14 05:06:48;;;;;;;5.10;4.43;;;21.20;34.40;;;;;;5044133;28;20246;-78
2023/06/14 05:09:16;;;;;;;5.15;4.50;;;21.20;34.40;;;;;;5065979;28;20211;-77
2023/06/14 05:11:43;;;;;;;4.55;4.15;;;21.20;34.30;;;;;;5051261;28;20172;-77
2023/06/14 05:14:10;;;;;;;4.65;4.22;;;21.20;34.30;;;;;;5068569;28;20158;-78
2023/06/14 05:16:39;;;;;;;5.20;4.70;;;21.20;34.30;;;;;;5058271;28;20159;-77
2023/06/14 05:19:04;;;;;;;5.53;4.18;;;21.20;34.30;;;;;;5069958;28;20159;-79
2023/06/14 05:21:34;;;;;;;4.97;4.47;;;21.20;34.30;;;;;;5055931;28;20223;-77
2023/06/14 05:24:03;;;;;;;4.82;4.10;;;21.10;34.30;;;;;;5056655;28;20162;-77
2023/06/14 05:26:29;;;;;;;4.95;4.32;;;21.20;34.50;;;;;;5060113;28;20169;-77
2023/06/14 05:28:57;;;;;;;4.97;4.47;;;21.20;34.40;;;;;;5068225;28;20177;-77
2023/06/14 05:31:23;;;;;;;5.00;4.50;;;21.20;34.60;;;;;;5068424;28;20154;-77
2023/06/14 05:33:50;;;;;;;4.82;4.32;;;21.20;34.70;;;;;;5069483;28;20158;-77
2023/06/14 05:36:15;;;;;;;5.10;4.60;;;21.20;34.90;;;;;;5066920;28;20169;-77
2023/06/14 05:38:41;;;;;;;4.72;4.22;;;21.20;35.10;;;;;;5066698;28;20166;-79
2023/06/14 05:41:08;;;;;;;4.40;4.00;;;21.20;36.60;;;;;;5059083;28;20167;-78
2023/06/14 05:43:34;;;;;;;4.40;4.00;;;21.20;37.80;;;;;;5068053;28;20252;-78
2023/06/14 05:46:00;;;;;;;4.20;3.80;;;21.20;40.30;;;;;;5066022;28;20216;-78
2023/06/14 05:48:26;;;;;;;3.92;3.53;;;21.20;41.20;;;;;;5045816;28;20484;-78
2023/06/14 05:50:51;;;;;;;4.00;3.60;;;21.20;41.70;;;;;;5055396;28;20163;-78
2023/06/14 05:53:18;;;;;;;3.83;3.53;;;21.10;42.90;;;;;;5050293;28;20613;-77
2023/06/14 05:55:47;;;;;;;4.50;3.80;;;21.10;43.80;;;;;;5065149;28;20502;-81
2023/06/14 05:58:13;;;;;;;4.10;3.70;;;21.10;43.90;;;;;;5046823;28;20243;-77
2023/06/14 06:00:40;;;;;;;3.90;3.47;;;21.10;44.20;;;;;;5063067;28;20155;-79
2023/06/14 06:03:08;;;;;;;3.78;3.38;;;21.10;44.50;;;;;;5063403;28;20154;-78
2023/06/14 06:05:34;;;;;;;5.13;3.65;;;21.10;45.00;;;;;;5052045;28;20167;-78
2023/06/14 06:08:00;;;;;;;4.47;4.07;;;21.10;44.80;;;;;;5060853;28;20205;-81
2023/06/14 06:10:26;;;;;;;4.38;3.65;;;21.20;45.00;;;;;;5060355;28;20182;-80
2023/06/14 06:12:54;;;;;;;3.55;3.20;;;21.20;45.30;;;;;;5060300;28;20638;-81
2023/06/14 06:15:20;;;;;;;11.23;3.95;;;21.20;45.60;;;;;;5061176;28;20200;-80
2023/06/14 06:17:46;;;;;;;5.38;3.70;;;21.20;44.60;;;;;;5058024;28;20170;-81
2023/06/14 06:20:12;;;;;;;7.20;3.67;;;21.20;44.90;;;;;;5058248;28;20170;-81
2023/06/14 06:22:39;;;;;;;6.57;3.70;;;21.20;45.00;;;;;;5062599;28;20194;-80
2023/06/14 06:25:08;;;;;;;5.60;3.78;;;21.20;44.70;;;;;;5063327;28;20234;-81
2023/06/14 06:27:34;;;;;;;3.83;3.22;;;21.20;44.20;;;;;;5062042;28;20612;-82
2023/06/14 06:30:00;;;;;;;6.60;3.67;;;21.20;44.70;;;;;;5060261;28;20178;-81
2023/06/14 06:32:26;;;;;;;4.82;3.55;;;21.30;44.40;;;;;;5057286;28;20169;-81
2023/06/14 06:34:51;;;;;;;6.70;4.00;;;21.40;44.30;;;;;;5056951;28;20726;-81
2023/06/14 06:37:17;;;;;;;3.90;3.50;;;21.40;43.80;;;;;;5058994;28;20605;-84
2023/06/14 06:39:44;;;;;;;4.95;3.70;;;21.50;44.10;;;;;;5057504;28;20166;-83
2023/06/14 06:42:12;;;;;;;3.97;3.53;;;21.50;43.70;;;;;;5057278;28;20224;-85
2023/06/14 06:44:38;;;;;;;5.20;3.75;;;21.40;43.20;;;;;;5053169;28;20205;-83
2023/06/14 06:47:04;;;;;;;4.68;3.80;;;21.50;43.50;;;;;;5053447;28;20257;-80
2023/06/14 06:49:30;;;;;;;3.95;3.55;;;21.60;43.30;;;;;;5053840;28;20185;-85
2023/06/14 06:52:04;;;;;;;5.43;3.60;;;21.60;43.20;;;;;;5036654;28;20601;-84
2023/06/14 06:54:30;;;;;;;3.78;3.47;;;21.70;43.10;;;;;;5040018;28;20173;-82
2023/06/14 06:56:56;;;;;;;4.20;3.55;;;21.60;43.00;;;;;;5036770;28;20570;-82
2023/06/14 06:59:22;;;;;;;4.05;3.65;;;21.60;43.30;;;;;;5053327;28;20268;-81
2023/06/14 07:01:47;;;;;;;4.18;3.70;;;21.70;43.40;;;;;;5017136;28;20629;-82
2023/06/14 07:04:13;;;;;;;5.00;3.30;;;21.60;43.30;;;;;;5052630;28;20173;-82
2023/06/14 07:06:39;;;;;;;4.55;3.30;;;21.60;43.70;;;;;;5053815;28;20158;-83
2023/06/14 07:09:08;;;;;;;4.00;3.17;;;21.60;43.90;;;;;;5035477;28;20189;-85
2023/06/14 07:11:33;;;;;;;6.10;3.45;;;21.60;43.90;;;;;;5052035;28;20147;-80
2023/06/14 07:13:59;;;;;;;3.70;3.40;;;21.70;43.90;;;;;;5051915;28;20237;-82
2023/06/14 07:16:25;;;;;;;4.15;3.38;;;21.70;44.00;;;;;;5053452;28;20739;-84
2023/06/14 07:18:52;;;;;;;3.50;3.13;;;21.70;43.90;;;;;;5036192;28;20170;-84
2023/06/14 07:21:17;;;;;;;4.22;3.28;;;21.70;43.90;;;;;;5052681;28;20154;-84
2023/06/14 07:23:43;;;;;;;3.25;2.95;;;21.70;44.00;;;;;;5053975;28;20635;-82
2023/06/14 07:26:09;;;;;;;4.13;3.53;;;21.60;44.20;;;;;;5035574;28;20178;-83
2023/06/14 07:28:35;;;;;;;4.25;3.70;;;21.60;44.40;;;;;;5031506;28;20198;-82
2023/06/14 07:31:01;;;;;;;3.40;3.10;;;21.70;44.40;;;;;;5033515;28;20158;-84
2023/06/14 07:33:27;;;;;;;5.30;3.58;;;21.60;44.40;;;;;;5042873;28;20162;-81
2023/06/14 07:35:52;;;;;;;3.78;3.40;;;21.80;44.40;;;;;;5052797;28;20166;-84
2023/06/14 07:38:18;;;;;;;4.53;3.53;;;21.80;44.40;;;;;;5049029;28;20150;-83
2023/06/14 07:40:44;;;;;;;3.72;3.38;;;21.80;44.70;;;;;;5042158;28;20544;-82
2023/06/14 07:43:09;;;;;;;4.22;3.40;;;21.80;44.60;;;;;;5049307;28;20189;-82
2023/06/14 07:45:36;;;;;;;3.83;3.22;;;21.60;44.80;;;;;;5034329;28;20605;-84
2023/06/14 07:48:01;;;;;;;4.93;3.55;;;21.80;44.80;;;;;;5045811;28;20240;-82
2023/06/14 07:50:27;;;;;;;4.68;3.50;;;21.80;44.70;;;;;;5048555;28;20555;-84
2023/06/14 07:52:52;;;;;;;4.30;3.30;;;21.90;44.60;;;;;;5050197;28;20680;-82
2023/06/14 07:55:18;;;;;;;3.25;2.95;;;21.90;44.30;;;;;;5035307;28;20171;-84
2023/06/14 07:57:46;;;;;;;3.40;3.05;;;21.90;44.10;;;;;;5032059;28;20541;-83
2023/06/14 08:00:15;;;;;;;3.47;3.17;;;21.90;44.10;;;;;;5032160;28;20175;-81
2023/06/14 08:02:42;;;;;;;4.05;3.40;;;21.90;44.20;;;;;;5032544;28;20581;-81
2023/06/14 08:05:19;;;;;;;4.93;3.38;;;21.90;44.40;;;;;;5032359;28;20170;-82
2023/06/14 08:07:54;;;;;;;4.15;3.20;;;22.00;44.40;;;;;;5029735;28;20186;-82
2023/06/14 08:10:45;;;;;;;3.70;3.30;;;22.00;44.30;;;;;;4957773;28;20235;-83
2023/06/14 08:13:11;;;;;;;3.72;3.42;;;22.10;44.20;;;;;;4914835;29;20193;-81
2023/06/14 08:15:36;;;;;;;3.72;3.33;;;22.10;44.30;;;;;;4885388;29;20271;-80
2023/06/14 08:18:03;;;;;;;3.50;3.15;;;22.00;44.50;;;;;;4915065;29;20191;-82
2023/06/14 08:20:31;;;;;;;5.13;2.90;;;22.00;44.50;;;;;;4882352;29;20195;-81
2023/06/14 08:22:57;;;;;;;3.47;3.17;;;22.00;44.50;;;;;;4898241;29;20190;-82
2023/06/14 08:25:23;;;;;;;4.32;3.38;;;22.00;44.50;;;;;;4897633;29;20248;-82
2023/06/14 08:27:51;;;;;;;3.90;3.50;;;22.00;44.60;;;;;;4904708;29;20804;-85
2023/06/14 08:30:52;;;;;;;3.45;3.10;;;22.00;44.70;;;;;;4879962;29;20697;-83
2023/06/14 08:33:19;;;;;;;3.50;3.17;;;22.10;44.50;;;;;;4901149;29;20632;-82
2023/06/14 08:35:44;;;;;;;3.28;2.97;;;22.10;44.60;;;;;;4912608;29;20275;-82
2023/06/14 08:38:24;;;;;;;4.00;3.20;;;22.10;44.60;;;;;;4926432;29;20192;-84
2023/06/14 08:40:51;;;;;;;3.53;3.22;;;22.10;44.60;;;;;;4949495;28;20340;-83
2023/06/14 08:43:17;;;;;;;4.43;3.20;;;22.20;44.60;;;;;;4980192;28;20161;-83
2023/06/14 08:45:42;;;;;;;14.32;3.50;;;22.20;44.40;;;;;;5008997;28;20233;-81
2023/06/14 08:48:08;;;;;;;5.50;3.47;;;22.20;44.60;;;;;;5015206;28;20258;-82
2023/06/14 08:50:34;;;;;;;4.80;3.50;;;22.20;44.60;;;;;;4999466;28;20195;-82
2023/06/14 08:53:02;;;;;;;3.53;3.20;;;22.20;44.80;;;;;;4967995;28;20172;-82
2023/06/14 08:55:28;;;;;;;4.38;3.50;;;22.20;44.90;;;;;;5015876;28;20168;-84
2023/06/14 08:57:55;;;;;;;4.10;3.40;;;22.30;44.70;;;;;;4983304;28;20243;-83
2023/06/14 09:00:22;;;;;;;5.25;3.30;;;22.40;44.60;;;;;;5000806;28;20164;-82
2023/06/14 09:02:48;;;;;;;4.43;3.40;;;22.30;44.90;;;;;;5015927;28;20188;-82
2023/06/14 09:05:13;;;;;;;4.22;3.47;;;22.30;44.90;;;;;;5015452;28;20264;-81
2023/06/14 09:07:41;;;;;;;4.78;3.30;;;22.40;44.80;;;;;;4998930;28;20651;-83
2023/06/14 09:10:08;;;;;;;3.60;3.30;;;22.40;44.80;;;;;;5015000;28;20701;-84
2023/06/14 09:12:34;;;;;;;3.50;3.20;;;22.40;44.90;;;;;;5016307;28;20186;-83
2023/06/14 09:15:00;;;;;;;3.42;3.10;;;22.40;44.90;;;;;;4975732;28;20648;-82
2023/06/14 09:17:26;;;;;;;3.85;3.33;;;22.40;44.80;;;;;;4976649;28;20188;-81
2023/06/14 09:19:51;;;;;;;4.40;3.50;;;22.40;44.90;;;;;;4976249;28;20714;-82
2023/06/14 09:22:17;;;;;;;3.88;3.25;;;22.40;44.80;;;;;;4976552;28;20169;-82
2023/06/14 09:24:43;;;;;;;3.80;3.17;;;22.40;44.60;;;;;;4977218;28;20586;-80
2023/06/14 09:27:15;;;;;;;4.07;3.40;;;22.40;44.60;;;;;;4959732;28;20173;-82
2023/06/14 09:29:44;;;;;;;4.38;3.28;;;22.30;44.90;;;;;;4975383;28;20212;-83
2023/06/14 09:32:10;;;;;;;3.80;3.40;;;22.30;45.20;;;;;;4975512;28;20651;-83
2023/06/14 09:34:36;;;;;;;3.70;3.33;;;22.20;45.30;;;;;;4975751;28;20603;-85
2023/06/14 09:37:01;;;;;;;3.67;3.25;;;22.20;45.30;;;;;;4975415;28;20204;-84
2023/06/14 09:39:27;;;;;;;5.35;3.70;;;22.20;45.60;;;;;;4958890;28;20651;-83
2023/06/14 09:41:55;;;;;;;4.70;3.55;;;22.20;45.50;;;;;;4975697;28;20228;-83
2023/06/14 09:44:21;;;;;;;3.80;3.40;;;22.30;45.70;;;;;;4949564;28;20177;-82
2023/06/14 09:46:47;;;;;;;3.50;3.20;;;22.30;45.60;;;;;;5007851;28;20362;-82
2023/06/14 09:49:13;;;;;;;3.75;3.30;;;22.40;45.40;;;;;;4998603;28;20656;-80
2023/06/14 09:51:43;;;;;;;3.97;3.33;;;22.40;45.30;;;;;;4981718;28;20174;-82
2023/06/14 09:54:09;;;;;;;3.40;3.10;;;22.40;45.30;;;;;;5005081;28;20262;-84
2023/06/14 09:56:37;;;;;;;4.25;3.30;;;22.50;45.20;;;;;;5035408;28;20197;-84
2023/06/14 09:59:07;;;;;;;4.00;3.47;;;22.50;45.20;;;;;;5035071;28;20260;-83
2023/06/14 10:01:33;;;;;;;4.03;3.65;;;22.50;45.40;;;;;;5036054;28;20159;-82
2023/06/14 10:04:02;;;;;;;3.22;2.92;;;22.50;45.30;;;;;;5037040;28;20625;-82
2023/06/14 10:06:28;;;;;;;4.10;3.50;;;22.50;45.50;;;;;;5024187;28;20166;-82
2023/06/14 10:08:56;;;;;;;4.22;3.50;;;22.50;45.20;;;;;;5034709;28;20296;-85
2023/06/14 10:11:22;;;;;;;3.65;3.28;;;22.50;45.10;;;;;;5035855;28;20171;-84
2023/06/14 10:13:47;;;;;;;7.90;3.30;;;22.50;45.30;;;;;;5035802;28;20166;-82
2023/06/14 10:16:35;;;;;;;4.28;3.80;;;22.50;45.40;;;;;;5035655;28;20159;-83
2023/06/14 10:19:22;;;;;;;3.90;3.50;;;22.50;45.50;;;;;;5034057;28;20166;-83
2023/06/14 10:21:56;;;;;;;4.50;3.30;;;22.50;45.70;;;;;;5035357;28;20192;-84
2023/06/14 10:24:29;;;;;;;4.00;3.60;;;22.50;45.70;;;;;;5034516;28;20166;-81
2023/06/14 10:26:58;;;;;;;4.60;3.50;;;22.50;45.80;;;;;;5034912;28;20217;-82
2023/06/14 10:29:24;;;;;;;3.88;3.30;;;22.50;45.70;;;;;;5035133;28;20743;-81
2023/06/14 10:31:51;;;;;;;4.15;3.60;;;22.50;45.70;;;;;;5035237;28;20249;-83
2023/06/14 10:34:25;;;;;;;3.95;3.55;;;22.60;45.80;;;;;;5035966;28;20155;-81
2023/06/14 10:37:04;;;;;;;4.47;3.28;;;22.60;45.80;;;;;;5034316;28;20174;-82
2023/06/14 10:39:30;;;;;;;5.20;3.80;;;22.60;45.80;;;;;;5035014;28;20617;-81
2023/06/14 10:41:57;;;;;;;8.65;3.40;;;22.60;45.70;;;;;;5016808;28;20225;-82
2023/06/14 10:44:41;;;;;;;5.85;3.60;;;22.50;46.00;;;;;;5034058;28;20510;-82
2023/06/14 10:47:09;;;;;;;4.20;3.55;;;22.50;46.00;;;;;;5034119;28;20704;-83
2023/06/14 10:49:40;;;;;;;4.65;3.95;;;22.50;46.40;;;;;;5027840;28;20218;-81
2023/06/14 10:52:14;;;;;;;4.85;3.40;;;22.50;46.40;;;;;;5033706;28;20206;-83
2023/06/14 10:55:03;;;;;;;6.43;3.60;;;22.50;46.50;;;;;;5037088;28;20163;-81
2023/06/14 10:57:31;;;;;;;6.65;4.03;;;22.50;46.40;;;;;;5016226;28;20190;-82
2023/06/14 10:59:58;;;;;;;7.03;4.13;;;22.50;46.40;;;;;;5016083;28;20195;-82
2023/06/14 11:02:45;;;;;;;4.93;3.50;;;22.40;46.30;;;;;;5034084;28;20636;-83
2023/06/14 11:05:11;;;;;;;4.40;3.65;;;22.40;46.40;;;;;;5036217;28;20174;-82
2023/06/14 11:08:13;;;;;;;5.50;3.88;;;22.40;46.60;;;;;;5034314;28;20158;-82
2023/06/14 11:10:41;;;;;;;5.68;4.05;;;22.50;46.40;;;;;;5034404;28;20237;-81
2023/06/14 11:13:07;;;;;;;4.53;3.65;;;22.50;46.60;;;;;;5017856;28;20171;-81
2023/06/14 11:15:34;;;;;;;6.55;3.72;;;22.50;46.60;;;;;;5037112;28;20167;-85
2023/06/14 11:18:02;;;;;;;5.50;3.50;;;22.50;46.60;;;;;;5035903;28;20155;-83
2023/06/14 11:20:30;;;;;;;8.07;3.55;;;22.50;46.70;;;;;;5037448;28;20250;-85
2023/06/14 11:22:57;;;;;;;7.13;3.83;;;22.50;46.70;;;;;;5037623;28;20239;-81
2023/06/14 11:25:24;;;;;;;5.35;3.90;;;22.50;46.80;;;;;;5031670;28;20346;-81
2023/06/14 11:27:50;;;;;;;4.63;3.65;;;22.50;46.60;;;;;;5034310;28;20166;-84
2023/06/14 11:30:16;;;;;;;7.18;3.78;;;22.60;46.60;;;;;;5033971;28;20186;-82
2023/06/14 11:32:42;;;;;;;5.30;3.65;;;22.60;46.60;;;;;;5033561;28;20190;-79
2023/06/14 11:35:09;;;;;;;5.22;3.83;;;22.50;47.20;;;;;;5034684;28;20159;-80
2023/06/14 11:37:36;;;;;;;9.13;4.10;;;22.60;46.60;;;;;;5033489;28;20197;-82
2023/06/14 11:40:07;;;;;;;5.88;3.78;;;22.60;46.70;;;;;;5017230;28;20175;-83
2023/06/14 11:42:33;;;;;;;9.57;3.80;;;22.60;46.80;;;;;;5033583;28;20174;-80
2023/06/14 11:44:59;;;;;;;9.77;4.07;;;22.60;46.70;;;;;;5031722;28;20232;-82
2023/06/14 11:47:30;;;;;;;6.70;4.03;;;22.60;47.30;;;;;;5032864;28;20226;-83
2023/06/14 11:49:58;;;;;;;5.18;3.53;;;22.70;46.60;;;;;;5034182;28;20245;-84
2023/06/14 11:52:24;;;;;;;5.40;3.70;;;22.60;46.70;;;;;;5033250;28;20154;-83
2023/06/14 11:54:52;;;;;;;6.07;3.70;;;22.60;46.70;;;;;;5034111;28;20182;-83
2023/06/14 11:57:21;;;;;;;4.15;3.75;;;22.60;46.90;;;;;;5036168;28;20181;-81
2023/06/14 11:59:48;;;;;;;4.38;3.72;;;22.60;46.90;;;;;;5034312;28;20249;-80
2023/06/14 12:02:17;;;;;;;4.63;3.53;;;22.60;46.80;;;;;;5036427;28;20232;-83
2023/06/14 12:04:43;;;;;;;5.00;3.63;;;22.60;46.90;;;;;;5035160;28;20261;-83
2023/06/14 12:07:14;;;;;;;5.60;3.58;;;22.60;46.90;;;;;;5035513;28;20610;-81
2023/06/14 12:09:43;;;;;;;3.92;3.53;;;22.60;46.80;;;;;;5035820;28;20203;-82
2023/06/14 12:12:10;;;;;;;7.88;3.85;;;22.70;46.80;;;;;;5035426;28;20499;-83
2023/06/14 12:14:36;;;;;;;4.85;3.50;;;22.60;46.70;;;;;;5033340;28;20561;-85
2023/06/14 12:17:06;;;;;;;4.28;3.88;;;22.60;46.80;;;;;;5033617;28;20194;-81
2023/06/14 12:19:33;;;;;;;3.72;3.42;;;22.60;46.80;;;;;;5034113;28;20232;-80
2023/06/14 12:22:01;;;;;;;4.40;3.78;;;22.60;47.00;;;;;;5035288;28;20625;-80
2023/06/14 12:24:29;;;;;;;4.03;3.63;;;22.60;47.80;;;;;;5035066;28;20171;-81
2023/06/14 12:26:54;;;;;;;4.00;3.60;;;22.60;47.10;;;;;;5035938;28;20159;-79
2023/06/14 12:29:20;;;;;;;4.65;3.60;;;22.60;47.00;;;;;;5035931;28;20182;-80
2023/06/14 12:32:06;;;;;;;4.68;3.60;;;22.60;47.10;;;;;;5036825;28;20167;-83
2023/06/14 12:34:32;;;;;;;3.92;3.53;;;22.60;47.10;;;;;;5035097;28;20193;-80
2023/06/14 12:37:23;;;;;;;4.30;3.40;;;22.60;47.10;;;;;;5035505;28;20155;-81
2023/06/14 12:39:50;;;;;;;3.90;3.50;;;22.60;47.10;;;;;;5035369;28;20322;-82
2023/06/14 12:42:17;;;;;;;4.50;4.10;;;22.60;47.10;;;;;;5036699;28;20188;-82
2023/06/14 12:44:43;;;;;;;4.45;3.50;;;22.60;47.20;;;;;;5037621;28;20525;-81
2023/06/14 12:47:11;;;;;;;4.35;3.95;;;22.60;47.20;;;;;;5033575;28;20224;-82
2023/06/14 12:49:37;;;;;;;5.70;3.75;;;22.60;47.30;;;;;;5035219;28;20675;-80
2023/06/14 12:52:03;;;;;;;4.63;3.70;;;22.60;47.30;;;;;;5034945;28;20246;-82